Terminal Aerodrome Forecast
Issued by NWS Nashville, TN

Home | Current Version | Previous Version | Text Only | Print | Product List | Glossary On
Versions: 1 2 3 4 5 6 7 8 9 10 11 12 13 14 15 16 17 18 19 20 21 22 23 24 25 26 27 28 29 30 31 32
000
FTUS44 KOHX 241100
TAFCSV
TAF
KCSV 241137Z 2412/2512 00000KT 5SM BR OVC004
      TEMPO 2412/2414 6SM BR SCT004 OVC007
     FM241400 34005KT P6SM BKN007 OVC011
      TEMPO 2414/2417 SCT007 OVC015
     FM241800 36006KT P6SM BKN025 BKN250
      TEMPO 2421/2423 SCT025 SCT250
     FM250000 35003KT P6SM SCT250
     FM250400 00000KT 5SM BR SCT250
      TEMPO 2506/2509 2SM BR
     FM250900 00000KT 2SM BR SCT250
      TEMPO 2509/2511 3/4SM BR SCT003=

USA.gov is the U.S. government's official web portal to all federal, state and local government web resources and services.